»·PEaware :: N272W KYKM-74S

N272W :: KYKM-74S

FLIGHT INFORMATION

Flight Status: Arrived
Operator: Privately registered:
United States
More flights under this callsign
Pilot: David D. (26785)
Aircraft: AÉROSPATIALE TRINIDAD
(TRIN)
More flights by this aircraft type
Origin: KYKM Yakima Air Term/Mcallister
United States
Destination: 74S Anacortes
United States
More flights between these airports :: More routes between these airports
Route: +
File this flight plan on PilotEdge
Remarks: FF
Altitude:
(Current/Filed)
8,500ft
Speed:
(Current/Filed)
0kts
Departed: 03-Feb-20 01:31 PM
Arrived: 03-Feb-20 02:46 PM
Distance/Time
Traveled:
144nm/1:15
Distance/Time
To Go:
Arrived

Flight Plot

Page will automatically refresh every two minutes.


Map Options




Map Legend


Flown Route
Filed Route
Departure Airport
Arrival Airport
Navaid (VOR, NDB)
Fix

Horizontal Profiles

Position Reports

Time Latitude Longitude Heading Altitude Ground
Speed
03-Feb-20 13:25 46.569816 -120.541864 270 1071ft 0kts
03-Feb-20 13:25 46.569816 -120.541864 270 1071ft 0kts
03-Feb-20 13:26 46.569128 -120.541243 107 1069ft 13kts
03-Feb-20 13:28 46.566792 -120.531841 118 1052ft 16kts
03-Feb-20 13:28 46.566476 -120.531512 175 1052ft 0kts
03-Feb-20 13:29 46.566476 -120.531512 175 1052ft 0kts
03-Feb-20 13:30 46.566896 -120.537023 289 1060ft 78kts
03-Feb-20 13:31 46.575968 -120.574660 286 2187ft 105kts
03-Feb-20 13:32 46.584402 -120.613041 308 3555ft 101kts
03-Feb-20 13:33 46.606698 -120.638282 322 4816ft 104kts
03-Feb-20 13:34 46.630447 -120.662245 329 5862ft 105kts
03-Feb-20 13:35 46.655068 -120.686613 326 6662ft 106kts
03-Feb-20 13:36 46.678444 -120.709950 323 7489ft 100kts
03-Feb-20 13:37 46.700583 -120.733363 324 8271ft 99kts
03-Feb-20 13:38 46.726880 -120.760621 327 8421ft 130kts
03-Feb-20 13:39 46.757273 -120.789762 325 8596ft 132kts
03-Feb-20 13:40 46.787857 -120.823055 323 8500ft 140kts
03-Feb-20 13:41 46.819704 -120.854893 325 8425ft 139kts
03-Feb-20 13:42 46.851208 -120.885856 325 8491ft 133kts
03-Feb-20 13:43 46.881653 -120.916292 322 8566ft 134kts
03-Feb-20 13:44 46.911965 -120.949709 321 8468ft 137kts
03-Feb-20 13:45 46.942019 -120.982790 322 8429ft 137kts
03-Feb-20 13:46 46.972384 -121.014727 322 8420ft 134kts
03-Feb-20 13:47 47.001760 -121.048103 318 8404ft 134kts
03-Feb-20 13:48 47.030907 -121.081570 322 8406ft 136kts
03-Feb-20 13:49 47.053260 -121.106953 325 8404ft 139kts
03-Feb-20 13:50 47.072344 -121.129404 321 8424ft 142kts
03-Feb-20 13:51 47.087873 -121.147921 324 8422ft 145kts
03-Feb-20 13:52 47.100590 -121.162306 325 8436ft 147kts
03-Feb-20 13:53 47.113282 -121.176222 325 8418ft 151kts
03-Feb-20 13:54 47.126020 -121.189726 325 8433ft 151kts
03-Feb-20 13:55 47.139258 -121.203772 324 8415ft 152kts
03-Feb-20 13:56 47.166093 -121.233280 322 8274ft 157kts
03-Feb-20 13:57 47.198764 -121.270859 321 8203ft 153kts
03-Feb-20 13:58 47.231874 -121.307511 323 8157ft 152kts
03-Feb-20 13:59 47.264820 -121.341965 326 8197ft 152kts
03-Feb-20 14:00 47.299257 -121.374621 324 8194ft 152kts
03-Feb-20 14:01 47.332313 -121.410848 322 8208ft 150kts
03-Feb-20 14:02 47.364859 -121.447691 324 8221ft 150kts
03-Feb-20 14:03 47.397602 -121.484278 323 8181ft 153kts
03-Feb-20 14:04 47.431212 -121.520847 324 8154ft 152kts
03-Feb-20 14:05 47.465235 -121.555697 327 8187ft 149kts
03-Feb-20 14:06 47.497636 -121.591381 321 8215ft 150kts
03-Feb-20 14:07 47.530319 -121.628748 322 8194ft 151kts
03-Feb-20 14:08 47.562287 -121.663746 323 8180ft 152kts
03-Feb-20 14:09 47.594678 -121.699209 323 8172ft 151kts
03-Feb-20 14:10 47.626940 -121.734273 322 8208ft 150kts
03-Feb-20 14:11 47.658290 -121.770086 324 8220ft 151kts
03-Feb-20 14:12 47.690512 -121.804461 323 8225ft 151kts
03-Feb-20 14:13 47.722179 -121.839346 322 8240ft 151kts
03-Feb-20 14:14 47.753725 -121.873853 324 8221ft 152kts
03-Feb-20 14:15 47.785112 -121.908182 324 8225ft 152kts
03-Feb-20 14:16 47.816344 -121.942197 325 8195ft 153kts
03-Feb-20 14:17 47.847730 -121.974693 324 8183ft 152kts
03-Feb-20 14:18 47.879594 -122.008534 325 8206ft 152kts
03-Feb-20 14:19 47.911269 -122.042750 324 8184ft 152kts
03-Feb-20 14:20 47.943402 -122.077775 325 8196ft 149kts
03-Feb-20 14:21 47.975824 -122.111589 324 8204ft 152kts
03-Feb-20 14:22 48.009646 -122.146402 324 8187ft 152kts
03-Feb-20 14:23 48.043917 -122.181338 327 8160ft 153kts
03-Feb-20 14:24 48.078527 -122.216639 323 8222ft 149kts
03-Feb-20 14:25 48.108555 -122.250020 324 8242ft 151kts
03-Feb-20 14:26 48.139619 -122.282331 329 8235ft 152kts
03-Feb-20 14:27 48.171530 -122.314589 321 8189ft 153kts
03-Feb-20 14:28 48.201413 -122.349780 324 8168ft 151kts
03-Feb-20 14:29 48.233206 -122.384308 322 8135ft 152kts
03-Feb-20 14:30 48.264556 -122.420097 323 7657ft 154kts
03-Feb-20 14:31 48.296929 -122.458704 320 6432ft 160kts
03-Feb-20 14:32 48.327846 -122.498304 319 5293ft 155kts
03-Feb-20 14:33 48.356482 -122.539915 312 4343ft 149kts
03-Feb-20 14:34 48.382963 -122.583232 311 4079ft 149kts
03-Feb-20 14:35 48.406707 -122.629080 306 3960ft 144kts
03-Feb-20 14:36 48.429082 -122.672414 307 3994ft 144kts
03-Feb-20 14:37 48.452722 -122.716945 314 3990ft 146kts
03-Feb-20 14:38 48.489406 -122.737697 349 3596ft 158kts
03-Feb-20 14:39 48.527778 -122.750760 339 3028ft 149kts
03-Feb-20 14:40 48.564808 -122.750402 63 2219ft 119kts
03-Feb-20 14:41 48.550285 -122.712123 132 1206ft 125kts
03-Feb-20 14:42 48.532902 -122.673044 109 1075ft 120kts
03-Feb-20 14:43 48.520697 -122.649304 199 690ft 81kts
03-Feb-20 14:44 48.503967 -122.659466 199 266ft 72kts
03-Feb-20 14:45 48.498288 -122.661687 106 248ft 5kts
03-Feb-20 14:46 48.496780 -122.661760 199 248ft 13kts
03-Feb-20 14:47 48.496461 -122.660741 64 248ft 0kts

Navigation Log

Ident Type
Flight plan parsing failed, navigation log unavailable